Aérodrome :
LOGIN :

S'inscrire | Disclaimer

   EN    FR    IT 

 










Légende :    VFR   VFR Marginal   IFR   IFR Intensif   IFR Très Intensif
Visi : 
Plafond : 
>= 8 km
>= 3000ft
5 à 8 km
1000 à 3000 ft
1500m à 5 km
500 à 1000 ft
800 à 1500m
200 à 500 ft
< 800m
< 200 ft
Symboles :   Orages  Brouillard  Fortes neiges  Fortes précipitations  Vent > 20 kt
SIGMETs :   Divers  Orages  Givrage  Turbulence  Onde Orograph.  Cendres Volcan.







- Altitude de l'aérodrome : 137 ft


LIPS - Istrana AFB Treviso

DERNIER METAR :
  • 121655Z 00000KT 8000 SCT030 BKN060 07/06 Q1011 RMK BKN VIS MIN 8000 WIND THR26 00000KT WIND THR08 00000KT BLU

METARs EXPIRÉS :
  • 121555Z 00000KT 8000 SCT030 BKN060 08/07 Q1010 RMK BKN VIS MIN 8000 WIND THR26 00000KT WIND THR08 00000KT BLU
  • 121455Z 36002KT 9999 SCT025 BKN060 09/07 Q1010 RMK OVC VIS MIN 9999 WIND THR26 00000KT WIND THR08 00000KT BLU

TAF TAF LIPS
Valide du 12 à 18h jusqu'au 13 à 03h UTC


121700Z 1218/1303 VRB03KT 7000 SCT030 BKN060
BECMG 1219/1221 VRB03KT 4000 BR BKN020 BKN060
Pas de NOTAMs connus pour ce terrain.
3 SIGMETs publiés pour la FIR Milano (LIMM) :
 
Turbulence forte
LIMM SIGMET 14 VALID 121815/121915 LIIP
LIMM MILANO FIR SEV TURB FCST N OF LINE N4407 E00658 - N4625 E00955 FL240/380 MOV E WKN=
Givrage fort
LIMM SIGMET 13 VALID 121705/121905 LIIP
LIMM MILANO FIR SEV ICE OBS WI N4614 E01329 - N4546 E01103 - N4433 E01110 - N4437 E01313 - N4509 E01306 - N4536 E01331 - N4536 E01353 - N4614 E01329 FL180/280 STNR NC=
Turbulence forte
LIMM SIGMET 12 VALID 121415/121815 LIIP
LIMM MILANO FIR SEV TURB FCST N OF LINE N4407 E00658 - N4625 E00955 FL240/380 MOV E WKN=



MET'MAP, la Météo Aéronautique d'un coup d'oeil ! - Copyright ORBIFLY Décembre 2007 - Disclaimer

ORBIFLY MET'MAP TEAM :

Programmation & Développement : Alexandra Zaïnal
Conception & Développement : Baudouin d'Aumeries
Co-Programmation & Développement : Marc-Olivier Méhu
Soutien technique & logistique : Manuel Goepfert

Contact : metmap@orbifly.com




SOURCES & CREDITS :

   NOAA